UKDR/KWG METAR and TAF weather

Enter ICAO airport designator
Station Type Date Time Source
UKDR METAR 2022/02/03 12:00 UTC NOAA

UKDR 031200Z 29002MPS CAVOK 03/M00 Q1009


Station Type Date Time Source
UKDR Decoded METAR 2022/02/03 12:00 UTC NOAA

Krivyy Rih / Dnipropetrovs'k, Ukraine (UKDR) 48-03N 033-13-12E
Feb 03, 2022 - 07:00 AM EST / 2022.02.03 1200 UTC
Wind: from the WNW (290 degrees) at 4 MPH (4 KT):0
Visibility: greater than 7 mile(s):0
Temperature: 37 F (3 C)
Dew Point: 32 F (0 C)
Relative Humidity: 80%
Pressure (altimeter): 29.80 in. Hg (1009 hPa)
ob: UKDR 031200Z 29002MPS CAVOK 03/M00 Q1009
cycle: 12

Station Type Date Time Source
UKDR TAF 2021/12/31 21:00 UTC NOAA

TAF
AMD UKDR 312125Z 3121/0118 24003MPS 0300 FZFG VV002 TX03/0112Z TNM01/3122Z
BECMG 0100/0102 0300 RA FG VV002
BECMG 0111/0113 28006MPS 3000 BR OVC007

Example: see airport list